createdAt,value
2023-04-23T00:00:58.514Z,2.45
2023-04-23T00:03:29.147Z,2.78
2023-04-23T00:05:59.306Z,2.22
2023-04-23T00:08:28.270Z,2.50
2023-04-23T00:10:56.403Z,3.10
2023-04-23T00:13:24.949Z,2.60
2023-04-23T00:15:53.040Z,3.03
2023-04-23T00:18:21.116Z,2.97
2023-04-23T00:20:50.995Z,2.97
2023-04-23T00:23:18.820Z,2.65
2023-04-23T00:25:46.657Z,3.22
2023-04-23T00:28:14.489Z,3.00
2023-04-23T00:30:42.347Z,3.42
2023-04-23T00:33:10.454Z,3.20
2023-04-23T00:35:38.489Z,2.95
2023-04-23T00:38:07.875Z,2.83
2023-04-23T00:40:35.852Z,2.90
2023-04-23T00:43:03.924Z,3.00
2023-04-23T00:45:31.858Z,2.92
2023-04-23T00:48:00.080Z,2.97
2023-04-23T00:50:28.166Z,3.00
2023-04-23T00:52:55.903Z,3.22
2023-04-23T00:55:25.068Z,3.10
2023-04-23T00:57:54.126Z,3.17
2023-04-23T01:00:22.447Z,3.17
2023-04-23T01:02:53.137Z,3.38
2023-04-23T01:05:21.920Z,3.37
2023-04-23T01:07:50.692Z,3.10
2023-04-23T01:10:18.588Z,3.47
2023-04-23T01:12:49.399Z,2.67
2023-04-23T01:15:17.857Z,3.08
2023-04-23T01:17:45.644Z,3.20
2023-04-23T01:20:13.655Z,3.28
2023-04-23T01:22:42.775Z,3.00
2023-04-23T01:25:11.429Z,2.80
2023-04-23T01:27:39.556Z,3.03
2023-04-23T01:30:08.848Z,3.22
2023-04-23T01:32:37.111Z,2.60
2023-04-23T01:35:05.535Z,3.20
2023-04-23T01:37:33.901Z,2.60
2023-04-23T01:40:02.996Z,2.58
2023-04-23T01:42:30.772Z,2.75
2023-04-23T01:44:58.853Z,3.43
2023-04-23T01:47:27.275Z,2.70
2023-04-23T01:49:55.169Z,2.88
2023-04-23T01:52:22.911Z,2.90
2023-04-23T01:54:50.963Z,3.13
2023-04-23T01:57:24.014Z,3.58
2023-04-23T01:59:51.905Z,4.53
2023-04-23T02:02:21.101Z,5.78
2023-04-23T02:04:49.687Z,5.00
2023-04-23T02:07:17.584Z,5.38
2023-04-23T02:09:45.914Z,5.43
2023-04-23T02:12:13.665Z,5.43
2023-04-23T02:14:43.105Z,6.23
2023-04-23T02:17:12.385Z,6.32
2023-04-23T02:19:40.824Z,5.93
2023-04-23T02:22:09.475Z,5.93
2023-04-23T02:24:38.852Z,6.20
2023-04-23T02:27:06.672Z,6.67
2023-04-23T02:29:34.739Z,7.20
2023-04-23T02:32:04.231Z,6.82
2023-04-23T02:34:31.976Z,6.53
2023-04-23T02:37:00.048Z,6.33
2023-04-23T02:39:27.773Z,6.32
2023-04-23T02:41:56.282Z,6.63
2023-04-23T02:44:24.307Z,6.53
2023-04-23T02:46:52.357Z,6.53
2023-04-23T02:49:21.494Z,6.17
2023-04-23T02:51:49.243Z,6.17
2023-04-23T02:54:18.176Z,6.70
2023-04-23T02:56:46.348Z,5.77
2023-04-23T02:59:14.342Z,5.63
2023-04-23T03:01:42.595Z,6.50
2023-04-23T03:04:10.483Z,5.27
2023-04-23T03:06:40.070Z,6.63
2023-04-23T03:09:07.818Z,6.53
2023-04-23T03:11:35.560Z,7.67
2023-04-23T03:14:03.418Z,6.70
2023-04-23T03:16:32.220Z,7.23
2023-04-23T03:19:01.098Z,7.57
2023-04-23T03:21:28.828Z,6.80
2023-04-23T03:23:58.013Z,6.27
2023-04-23T03:26:25.864Z,6.10
2023-04-23T03:28:53.676Z,7.73
2023-04-23T03:31:21.509Z,7.43
2023-04-23T03:33:49.354Z,7.03
2023-04-23T03:36:17.086Z,6.10
2023-04-23T03:38:46.440Z,6.60
2023-04-23T03:41:15.677Z,5.87
2023-04-23T03:43:43.446Z,5.23
2023-04-23T03:46:11.238Z,5.40
2023-04-23T03:48:39.124Z,5.97
2023-04-23T03:51:06.896Z,4.80
2023-04-23T03:53:34.621Z,5.43
2023-04-23T03:56:02.390Z,4.40
2023-04-23T03:58:31.522Z,4.90
2023-04-23T04:00:59.474Z,4.73
2023-04-23T04:03:27.285Z,4.83
2023-04-23T04:05:55.529Z,5.20
2023-04-23T04:08:23.448Z,4.60
2023-04-23T04:10:51.203Z,4.77
2023-04-23T04:13:19.717Z,5.23
2023-04-23T04:15:48.824Z,5.17
2023-04-23T04:18:16.888Z,3.90
2023-04-23T04:20:45.473Z,4.93
2023-04-23T04:23:13.208Z,4.97
2023-04-23T04:25:41.107Z,4.60
2023-04-23T04:28:09.332Z,4.17
2023-04-23T04:30:38.124Z,4.43
2023-04-23T04:33:07.397Z,4.73
2023-04-23T04:35:35.485Z,4.17
2023-04-23T04:38:03.249Z,4.07
2023-04-23T04:40:31.423Z,3.40
2023-04-23T04:43:00.157Z,3.73
2023-04-23T04:45:27.914Z,4.03
2023-04-23T04:47:56.045Z,3.60
2023-04-23T04:50:25.398Z,4.13
2023-04-23T04:52:53.182Z,3.40
2023-04-23T04:55:21.062Z,3.60
2023-04-23T04:57:48.795Z,3.63
2023-04-23T05:00:24.271Z,3.70
2023-04-23T05:02:52.415Z,3.40
2023-04-23T05:05:21.354Z,2.70
2023-04-23T05:07:50.503Z,3.53
2023-04-23T05:10:18.574Z,2.73
2023-04-23T05:12:46.334Z,3.03
2023-04-23T05:15:14.832Z,3.03
2023-04-23T05:17:43.507Z,3.47
2023-04-23T05:20:12.707Z,3.10
2023-04-23T05:22:41.325Z,2.63
2023-04-23T05:25:11.684Z,2.80
2023-04-23T05:27:39.978Z,2.50
2023-04-23T05:30:10.486Z,3.33
2023-04-23T05:32:39.287Z,2.70
2023-04-23T05:35:07.956Z,2.70
2023-04-23T05:37:35.900Z,2.67
2023-04-23T05:40:04.949Z,2.87
2023-04-23T05:42:35.493Z,2.77
2023-04-23T05:45:03.328Z,2.90
2023-04-23T05:47:31.406Z,2.63
2023-04-23T05:49:59.242Z,1.93
2023-04-23T05:52:27.188Z,2.23
2023-04-23T05:54:54.879Z,2.27
2023-04-23T05:57:22.853Z,1.90
2023-04-23T05:59:51.953Z,2.40
2023-04-23T06:02:21.376Z,1.73
2023-04-23T06:04:50.448Z,1.67
2023-04-23T06:07:18.270Z,1.70
2023-04-23T06:09:46.008Z,1.97
2023-04-23T06:12:13.890Z,1.70
2023-04-23T06:14:42.256Z,1.70
2023-04-23T06:17:11.655Z,2.37
2023-04-23T06:19:39.373Z,1.83
2023-04-23T06:22:07.223Z,1.90
2023-04-23T06:24:34.970Z,1.93
2023-04-23T06:27:02.937Z,1.70
2023-04-23T06:29:30.823Z,1.77
2023-04-23T06:32:02.535Z,1.80
2023-04-23T06:34:31.612Z,2.00
2023-04-23T06:36:59.452Z,2.03
2023-04-23T06:39:27.156Z,1.73
2023-04-23T06:41:54.916Z,2.07
2023-04-23T06:44:22.644Z,2.10
2023-04-23T06:46:50.419Z,2.20
2023-04-23T06:49:18.189Z,1.80
2023-04-23T06:51:48.264Z,1.90
2023-04-23T06:54:15.981Z,1.73
2023-04-23T06:56:43.701Z,1.97
2023-04-23T06:59:11.532Z,2.67
2023-04-23T07:01:39.277Z,2.00
2023-04-23T07:04:07.078Z,2.40
2023-04-23T07:06:35.664Z,2.33
2023-04-23T07:09:04.846Z,2.47
2023-04-23T07:11:34.756Z,2.10
2023-04-23T07:14:02.566Z,1.63
2023-04-23T07:16:33.800Z,1.93
2023-04-23T07:19:02.312Z,1.80
2023-04-23T07:21:30.491Z,1.80
2023-04-23T07:23:59.700Z,1.97
2023-04-23T07:26:28.772Z,2.17
2023-04-23T07:28:56.654Z,2.00
2023-04-23T07:31:24.494Z,1.93
2023-04-23T07:33:52.326Z,2.10
2023-04-23T07:36:20.080Z,1.90
2023-04-23T07:38:47.749Z,2.10
2023-04-23T07:41:15.547Z,2.10
2023-04-23T07:43:44.591Z,2.70
2023-04-23T07:46:12.442Z,2.10
2023-04-23T07:48:40.259Z,2.07
2023-04-23T07:51:09.969Z,2.20
2023-04-23T07:53:37.867Z,2.33
2023-04-23T07:56:05.757Z,2.20
2023-04-23T07:58:34.952Z,2.63
2023-04-23T08:01:04.755Z,2.45
2023-04-23T08:03:34.168Z,1.83
2023-04-23T08:06:02.311Z,2.43
2023-04-23T08:08:29.991Z,2.17
2023-04-23T08:10:57.778Z,2.40
2023-04-23T08:13:25.672Z,2.05
2023-04-23T08:15:53.559Z,2.67
2023-04-23T08:18:22.792Z,2.87
2023-04-23T08:20:50.877Z,2.60
2023-04-23T08:23:19.084Z,2.33
2023-04-23T08:25:46.910Z,2.37
2023-04-23T08:28:14.721Z,2.40
2023-04-23T08:30:42.553Z,2.57
2023-04-23T08:33:10.920Z,2.67
2023-04-23T08:35:40.055Z,2.23
2023-04-23T08:38:07.812Z,2.53
2023-04-23T08:40:38.237Z,2.50
2023-04-23T08:43:14.090Z,2.10
2023-04-23T08:45:42.460Z,2.05
2023-04-23T08:48:11.333Z,2.20
2023-04-23T08:50:44.252Z,1.98
2023-04-23T08:53:19.205Z,2.58
2023-04-23T08:55:49.838Z,2.33
2023-04-23T08:58:18.003Z,1.85
2023-04-23T09:00:46.420Z,2.40
2023-04-23T09:03:14.451Z,2.60
2023-04-23T09:05:44.740Z,2.70
2023-04-23T09:08:12.482Z,2.33
2023-04-23T09:10:41.893Z,2.72
2023-04-23T09:13:09.691Z,2.72
2023-04-23T09:15:43.256Z,2.28
2023-04-23T09:18:11.600Z,2.60
2023-04-23T09:20:39.382Z,2.65
2023-04-23T09:23:09.767Z,2.60
2023-04-23T09:25:37.688Z,3.05
2023-04-23T09:28:08.897Z,3.17
2023-04-23T09:30:42.152Z,2.78
2023-04-23T09:33:12.649Z,3.20
2023-04-23T09:35:42.139Z,2.72
2023-04-23T09:38:11.351Z,3.55
2023-04-23T09:40:39.171Z,3.03
2023-04-23T09:43:08.060Z,3.03
2023-04-23T09:45:37.861Z,2.85
2023-04-23T09:48:06.907Z,3.40
2023-04-23T09:50:36.910Z,3.25
2023-04-23T09:53:05.484Z,4.07
2023-04-23T09:55:38.481Z,3.78
2023-04-23T09:58:07.531Z,3.63
2023-04-23T10:00:37.522Z,4.00
2023-04-23T10:03:07.033Z,3.92
2023-04-23T10:08:10.416Z,4.38
2023-04-23T10:10:53.215Z,4.60
2023-04-23T10:13:25.290Z,3.70
2023-04-23T10:15:53.541Z,3.20
2023-04-23T10:18:22.098Z,3.42
2023-04-23T10:20:50.960Z,4.03
2023-04-23T10:23:21.332Z,3.75
2023-04-23T10:25:51.569Z,3.85
2023-04-23T10:28:28.928Z,3.17
2023-04-23T10:30:58.112Z,3.60
2023-04-23T10:33:32.023Z,3.20
2023-04-23T10:36:06.132Z,3.45
2023-04-23T10:38:34.616Z,3.33
2023-04-23T10:41:05.038Z,3.35
2023-04-23T10:43:32.921Z,2.88
2023-04-23T10:46:02.274Z,3.15
2023-04-23T10:48:30.163Z,3.67
2023-04-23T10:53:33.070Z,3.20
2023-04-23T10:56:09.168Z,3.22
2023-04-23T10:58:52.670Z,3.60
2023-04-23T11:01:22.053Z,3.70
2023-04-23T11:03:50.022Z,3.00
2023-04-23T11:06:41.866Z,2.70
2023-04-23T11:09:31.439Z,3.10
2023-04-23T11:12:01.632Z,3.50
2023-04-23T11:14:37.245Z,2.50
2023-04-23T11:17:07.479Z,3.10
2023-04-23T11:19:38.687Z,2.42
2023-04-23T11:22:08.327Z,2.28
2023-04-23T11:24:41.802Z,2.60
2023-04-23T11:27:13.210Z,2.90
2023-04-23T11:29:42.176Z,2.30
2023-04-23T11:32:12.866Z,2.63
2023-04-23T11:34:41.728Z,2.47
2023-04-23T11:37:11.706Z,2.80
2023-04-23T11:39:40.858Z,2.67
2023-04-23T11:42:13.121Z,2.53
2023-04-23T11:44:41.755Z,3.20
2023-04-23T11:47:11.359Z,2.85
2023-04-23T11:49:39.985Z,3.10
2023-04-23T11:52:07.990Z,2.20
2023-04-23T11:54:36.256Z,2.25
2023-04-23T11:57:05.867Z,2.38
2023-04-23T11:59:35.249Z,2.30
2023-04-23T12:02:03.131Z,2.30
2023-04-23T12:04:32.349Z,2.10
2023-04-23T12:07:04.309Z,2.03
2023-04-23T12:09:38.263Z,1.95
2023-04-23T12:12:06.489Z,1.80
2023-04-23T12:14:35.552Z,2.10
2023-04-23T12:17:12.256Z,2.30
2023-04-23T12:19:41.059Z,1.90
2023-04-23T12:22:09.175Z,2.10
2023-04-23T12:24:48.335Z,1.80
2023-04-23T12:27:20.144Z,2.20
2023-04-23T12:29:50.933Z,2.03
2023-04-23T12:32:22.751Z,2.10
2023-04-23T12:34:54.952Z,2.00
2023-04-23T12:37:26.592Z,1.73
2023-04-23T12:39:56.874Z,1.80
2023-04-23T12:42:24.932Z,1.77
2023-04-23T12:44:55.770Z,1.80
2023-04-23T12:47:24.894Z,1.80
2023-04-23T12:49:55.306Z,1.65
2023-04-23T12:52:23.092Z,2.00
2023-04-23T12:54:52.614Z,1.58
2023-04-23T12:57:23.116Z,1.63
2023-04-23T12:59:51.376Z,1.73
2023-04-23T13:02:21.112Z,2.10
2023-04-23T13:04:48.880Z,1.40
2023-04-23T13:07:16.858Z,1.77
2023-04-23T13:09:44.911Z,1.67
2023-04-23T13:12:12.887Z,1.70
2023-04-23T13:14:40.612Z,1.33
2023-04-23T13:17:08.470Z,1.40
2023-04-23T13:19:39.682Z,1.33
2023-04-23T13:22:08.015Z,1.90
2023-04-23T13:24:36.030Z,1.75
2023-04-23T13:27:03.775Z,2.08
2023-04-23T13:29:31.571Z,1.80
2023-04-23T13:31:59.346Z,2.30
2023-04-23T13:34:27.142Z,1.55
2023-04-23T13:36:57.057Z,2.00
2023-04-23T13:39:25.081Z,1.90
2023-04-23T13:42:06.119Z,1.48
2023-04-23T13:44:36.605Z,1.75
2023-04-23T13:47:04.558Z,1.27
2023-04-23T13:49:32.511Z,1.60
2023-04-23T13:52:06.315Z,1.88
2023-04-23T13:54:35.951Z,1.60
2023-04-23T13:57:04.147Z,1.50
2023-04-23T13:59:31.842Z,1.73
2023-04-23T14:01:59.567Z,1.50
2023-04-23T14:04:27.405Z,1.48
2023-04-23T14:06:55.332Z,1.20
2023-04-23T14:09:24.442Z,1.52
2023-04-23T14:11:52.195Z,1.38
2023-04-23T14:14:19.902Z,1.38
2023-04-23T14:16:47.663Z,2.08
2023-04-23T14:19:15.427Z,2.17
2023-04-23T14:21:43.340Z,2.30
2023-04-23T14:24:18.599Z,2.58
2023-04-23T14:26:49.768Z,1.70
2023-04-23T14:29:26.224Z,1.63
2023-04-23T14:31:54.260Z,1.55
2023-04-23T14:34:22.278Z,1.70
2023-04-23T14:36:50.505Z,2.97
2023-04-23T14:39:18.422Z,2.97
2023-04-23T14:41:47.481Z,3.00
2023-04-23T14:44:15.308Z,2.47
2023-04-23T14:46:43.004Z,3.03
2023-04-23T14:49:10.879Z,2.38
2023-04-23T14:51:38.656Z,1.60
2023-04-23T14:54:07.172Z,0.98
2023-04-23T14:56:34.950Z,1.38
2023-04-23T14:59:04.586Z,1.48
2023-04-23T15:01:32.426Z,1.17
2023-04-23T15:04:00.294Z,0.90
2023-04-23T15:06:28.231Z,1.48
2023-04-23T15:08:55.934Z,1.30
2023-04-23T15:11:23.784Z,1.30
2023-04-23T15:13:57.986Z,1.30
2023-04-23T15:16:47.305Z,1.00
2023-04-23T15:19:18.377Z,1.23
2023-04-23T15:21:46.548Z,1.30
2023-04-23T15:24:14.285Z,1.17
2023-04-23T15:26:42.226Z,1.02
2023-04-23T15:29:10.246Z,1.05
2023-04-23T15:31:39.765Z,1.20
2023-04-23T15:34:09.013Z,1.05
2023-04-23T15:36:37.589Z,1.30
2023-04-23T15:39:06.568Z,2.15
2023-04-23T15:41:36.141Z,1.52
2023-04-23T15:44:05.558Z,1.60
2023-04-23T15:46:33.261Z,1.83
2023-04-23T15:49:03.672Z,2.38
2023-04-23T15:51:31.988Z,1.98
2023-04-23T15:54:00.876Z,1.20
2023-04-23T15:56:28.724Z,1.30
2023-04-23T15:58:56.810Z,1.05
2023-04-23T16:01:27.087Z,1.33
2023-04-23T16:04:09.550Z,1.25
2023-04-23T16:06:39.978Z,2.00
2023-04-23T16:09:08.307Z,1.58
2023-04-23T16:11:38.204Z,1.50
2023-04-23T16:14:07.403Z,1.50
2023-04-23T16:16:35.158Z,1.45
2023-04-23T16:19:03.670Z,1.50
2023-04-23T16:21:31.921Z,1.38
2023-04-23T16:24:01.250Z,1.60
2023-04-23T16:26:29.668Z,1.67
2023-04-23T16:31:28.345Z,1.52
2023-04-23T16:33:56.527Z,1.33
2023-04-23T16:36:24.695Z,1.40
2023-04-23T16:38:52.820Z,1.35
2023-04-23T16:41:22.875Z,1.50
2023-04-23T16:43:50.614Z,1.63
2023-04-23T16:46:18.511Z,1.60
2023-04-23T16:48:46.973Z,2.10
2023-04-23T16:51:15.834Z,1.48
2023-04-23T16:53:43.558Z,1.60
2023-04-23T16:56:13.923Z,1.40
2023-04-23T16:58:43.039Z,1.88
2023-04-23T17:01:18.044Z,1.38
2023-04-23T17:03:46.659Z,1.30
2023-04-23T17:06:26.413Z,1.08
2023-04-23T17:08:54.706Z,1.37
2023-04-23T17:11:22.854Z,1.17
2023-04-23T17:13:52.631Z,1.38
2023-04-23T17:16:20.844Z,1.20
2023-04-23T17:18:48.764Z,1.40
2023-04-23T17:21:19.002Z,1.70
2023-04-23T17:23:47.213Z,1.50
2023-04-23T17:26:15.456Z,1.48
2023-04-23T17:28:43.769Z,1.85
2023-04-23T17:31:13.790Z,2.15
2023-04-23T17:33:43.576Z,1.40
2023-04-23T17:36:11.772Z,1.73
2023-04-23T17:38:39.674Z,1.70
2023-04-23T17:41:07.534Z,1.45
2023-04-23T17:43:35.725Z,1.43
2023-04-23T17:46:04.002Z,1.75
2023-04-23T17:48:34.804Z,1.30
2023-04-23T17:51:03.099Z,1.50
2023-04-23T17:53:31.190Z,1.50
2023-04-23T17:56:03.050Z,1.50
2023-04-23T17:58:31.424Z,1.53
2023-04-23T18:00:59.461Z,1.63
2023-04-23T18:03:28.299Z,1.60
2023-04-23T18:05:57.854Z,1.63
2023-04-23T18:08:25.787Z,1.30
2023-04-23T18:10:56.786Z,1.73
2023-04-23T18:13:26.511Z,1.25
2023-04-23T18:15:56.463Z,1.60
2023-04-23T18:18:24.388Z,1.63
2023-04-23T18:20:52.787Z,1.80
2023-04-23T18:23:22.209Z,1.83
2023-04-23T18:25:50.418Z,1.73
2023-04-23T18:28:18.159Z,1.50
2023-04-23T18:30:45.986Z,1.77
2023-04-23T18:33:30.681Z,2.23
2023-04-23T18:36:03.683Z,2.27
2023-04-23T18:38:38.643Z,2.00
2023-04-23T18:41:06.396Z,2.60
2023-04-23T18:43:35.680Z,1.87
2023-04-23T18:46:03.889Z,1.80
2023-04-23T18:48:59.888Z,2.03
2023-04-23T18:51:33.181Z,1.90
2023-04-23T18:54:05.812Z,1.30
2023-04-23T18:56:33.939Z,1.70
2023-04-23T18:59:01.849Z,1.77
2023-04-23T19:01:31.188Z,1.83
2023-04-23T19:03:59.541Z,1.87
2023-04-23T19:06:27.949Z,1.77
2023-04-23T19:08:56.038Z,2.33
2023-04-23T19:11:27.129Z,2.00
2023-04-23T19:13:54.900Z,2.00
2023-04-23T19:16:23.610Z,2.43
2023-04-23T19:18:51.600Z,2.30
2023-04-23T19:21:19.465Z,2.50
2023-04-23T19:23:47.356Z,2.00
2023-04-23T19:26:15.937Z,2.20
2023-04-23T19:28:45.077Z,2.00
2023-04-23T19:31:12.994Z,2.67
2023-04-23T19:33:42.695Z,2.03
2023-04-23T19:36:10.703Z,2.40
2023-04-23T19:38:38.614Z,2.40
2023-04-23T19:41:07.146Z,2.10
2023-04-23T19:43:35.563Z,2.10
2023-04-23T19:46:05.506Z,1.80
2023-04-23T19:48:33.247Z,1.80
2023-04-23T19:51:01.366Z,2.30
2023-04-23T19:53:29.549Z,2.30
2023-04-23T19:55:57.558Z,1.70
2023-04-23T19:58:25.442Z,1.90
2023-04-23T20:00:53.877Z,1.90
2023-04-23T20:03:23.877Z,2.47
2023-04-23T20:05:52.498Z,2.03
2023-04-23T20:08:29.443Z,2.00
2023-04-23T20:10:57.987Z,1.80
2023-04-23T20:13:26.792Z,2.03
2023-04-23T20:15:57.550Z,1.90
2023-04-23T20:18:29.096Z,1.60
2023-04-23T20:20:57.458Z,2.13
2023-04-23T20:23:26.269Z,2.53
2023-04-23T20:25:54.340Z,2.07
2023-04-23T20:28:23.737Z,2.00
2023-04-23T20:30:51.504Z,2.10
2023-04-23T20:33:19.476Z,2.30
2023-04-23T20:35:48.555Z,1.70
2023-04-23T20:38:19.361Z,2.13
2023-04-23T20:40:47.327Z,2.50
2023-04-23T20:43:15.427Z,2.17
2023-04-23T20:45:43.836Z,2.40
2023-04-23T20:48:12.154Z,2.20
2023-04-23T20:50:39.902Z,2.00
2023-04-23T20:53:08.998Z,3.03
2023-04-23T20:55:36.853Z,2.60
2023-04-23T20:58:04.537Z,2.50
2023-04-23T21:00:32.716Z,2.53
2023-04-23T21:03:00.503Z,2.23
2023-04-23T21:05:28.344Z,2.70
2023-04-23T21:07:56.130Z,2.53
2023-04-23T21:10:25.318Z,2.63
2023-04-23T21:12:53.188Z,2.30
2023-04-23T21:15:21.091Z,2.87
2023-04-23T21:17:48.875Z,2.30
2023-04-23T21:20:16.666Z,2.60
2023-04-23T21:22:44.387Z,2.50
2023-04-23T21:25:12.128Z,2.53
2023-04-23T21:27:45.424Z,3.17
2023-04-23T21:30:25.676Z,2.47
2023-04-23T21:32:54.369Z,2.23
2023-04-23T21:35:22.145Z,2.43
2023-04-23T21:37:49.859Z,2.43
2023-04-23T21:40:18.788Z,2.57
2023-04-23T21:42:48.070Z,2.33
2023-04-23T21:45:16.834Z,2.30
2023-04-23T21:47:44.634Z,2.70
2023-04-23T21:50:13.327Z,2.50
2023-04-23T21:52:43.030Z,2.00
2023-04-23T21:55:12.258Z,2.53
2023-04-23T21:57:40.310Z,2.27
2023-04-23T22:00:14.051Z,2.60
2023-04-23T22:02:42.356Z,2.13
2023-04-23T22:05:10.928Z,2.30
2023-04-23T22:07:41.197Z,2.33
2023-04-23T22:10:11.308Z,2.33
2023-04-23T22:12:39.254Z,2.60
2023-04-23T22:15:10.437Z,2.17
2023-04-23T22:17:38.433Z,2.30
2023-04-23T22:20:07.886Z,3.17
2023-04-23T22:22:36.599Z,2.30
2023-04-23T22:25:06.706Z,2.60
2023-04-23T22:27:35.344Z,2.50
2023-04-23T22:30:05.127Z,2.30
2023-04-23T22:32:34.245Z,2.47
2023-04-23T22:35:02.159Z,2.70
2023-04-23T22:37:30.462Z,2.33
2023-04-23T22:39:58.425Z,2.13
2023-04-23T22:42:26.211Z,2.13
2023-04-23T22:44:53.980Z,2.30
2023-04-23T22:47:22.321Z,2.37
2023-04-23T22:49:52.802Z,2.57
2023-04-23T22:52:20.733Z,2.30
2023-04-23T22:54:48.695Z,2.87
2023-04-23T22:57:16.576Z,2.40
2023-04-23T22:59:44.461Z,2.73
2023-04-23T23:02:12.434Z,2.57
2023-04-23T23:04:40.316Z,2.87
2023-04-23T23:07:09.938Z,2.60
2023-04-23T23:09:37.676Z,2.60
2023-04-23T23:12:05.821Z,2.43
2023-04-23T23:14:37.531Z,2.80
2023-04-23T23:17:05.799Z,2.53
2023-04-23T23:19:33.742Z,2.47
2023-04-23T23:22:01.488Z,2.60
2023-04-23T23:24:30.645Z,2.50
2023-04-23T23:26:58.460Z,2.10
2023-04-23T23:29:26.236Z,1.97
2023-04-23T23:31:54.585Z,1.97
2023-04-23T23:34:22.368Z,2.63
2023-04-23T23:36:51.735Z,2.40
2023-04-23T23:39:20.411Z,2.37
2023-04-23T23:41:49.454Z,2.50
2023-04-23T23:44:17.440Z,2.13
2023-04-23T23:46:45.275Z,2.40
2023-04-23T23:49:14.245Z,2.33
2023-04-23T23:51:41.943Z,1.87
2023-04-23T23:54:09.831Z,2.10
2023-04-23T23:56:37.837Z,2.33
2023-04-23T23:59:06.860Z,2.40
